createdAt,value
2018-10-02T00:02:27.769Z,3.30
2018-10-02T00:06:01.020Z,2.60
2018-10-02T00:09:34.266Z,3.30
2018-10-02T00:13:12.937Z,2.23
2018-10-02T00:16:46.190Z,2.30
2018-10-02T00:20:19.431Z,2.57
2018-10-02T00:23:52.652Z,2.37
2018-10-02T00:27:25.895Z,3.00
2018-10-02T00:30:59.132Z,2.43
2018-10-02T00:34:32.368Z,2.37
2018-10-02T00:38:05.630Z,2.40
2018-10-02T00:41:38.843Z,2.20
2018-10-02T00:45:12.078Z,2.40
2018-10-02T00:48:45.401Z,2.00
2018-10-02T00:52:18.644Z,2.33
2018-10-02T00:55:51.888Z,2.13
2018-10-02T00:59:25.112Z,2.30
2018-10-02T01:02:58.343Z,2.10
2018-10-02T01:06:31.607Z,2.67
2018-10-02T01:10:04.862Z,2.50
2018-10-02T01:13:38.112Z,2.80
2018-10-02T01:17:11.345Z,2.80
2018-10-02T01:20:44.556Z,2.80
2018-10-02T01:24:17.807Z,2.47
2018-10-02T01:27:51.053Z,3.10
2018-10-02T01:31:24.281Z,3.80
2018-10-02T01:34:57.548Z,3.30
2018-10-02T01:38:30.791Z,3.07
2018-10-02T01:42:04.036Z,2.70
2018-10-02T01:45:37.260Z,3.50
2018-10-02T01:49:10.501Z,3.30
2018-10-02T01:52:44.444Z,2.97
2018-10-02T01:56:17.679Z,3.33
2018-10-02T01:59:50.924Z,5.37
2018-10-02T02:03:24.156Z,5.20
2018-10-02T02:06:57.394Z,4.93
2018-10-02T02:10:30.626Z,6.37
2018-10-02T02:14:03.842Z,6.07
2018-10-02T02:17:37.076Z,4.93
2018-10-02T02:21:10.321Z,6.40
2018-10-02T02:24:43.545Z,6.63
2018-10-02T02:28:16.780Z,6.87
2018-10-02T02:31:50.008Z,6.90
2018-10-02T02:35:23.247Z,7.33
2018-10-02T02:38:56.488Z,6.20
2018-10-02T02:42:29.726Z,8.07
2018-10-02T02:46:03.155Z,7.77
2018-10-02T02:49:41.909Z,8.13
2018-10-02T02:53:17.124Z,8.20
2018-10-02T02:56:50.390Z,7.83
2018-10-02T03:00:24.086Z,8.30
2018-10-02T03:03:57.544Z,9.77
2018-10-02T03:07:30.797Z,9.17
2018-10-02T03:11:04.025Z,8.80
2018-10-02T03:14:37.274Z,7.97
2018-10-02T03:18:10.501Z,10.93
2018-10-02T03:21:43.812Z,10.00
2018-10-02T03:25:16.998Z,8.73
2018-10-02T03:28:50.268Z,8.97
2018-10-02T03:32:23.585Z,8.90
2018-10-02T03:35:56.816Z,9.00
2018-10-02T03:39:30.143Z,9.37
2018-10-02T03:43:03.351Z,10.10
2018-10-02T03:46:36.584Z,10.90
2018-10-02T03:50:09.835Z,9.90
2018-10-02T03:53:43.061Z,10.53
2018-10-02T03:57:16.301Z,10.57
2018-10-02T04:00:49.571Z,10.60
2018-10-02T04:04:22.820Z,12.00
2018-10-02T04:07:56.061Z,10.60
2018-10-02T04:11:29.315Z,10.43
2018-10-02T04:15:02.648Z,10.03
2018-10-02T04:18:35.896Z,10.03
2018-10-02T04:22:09.129Z,10.50
2018-10-02T04:25:42.372Z,10.07
2018-10-02T04:29:15.596Z,11.13
2018-10-02T04:32:48.847Z,9.90
2018-10-02T04:36:22.304Z,10.13
2018-10-02T04:39:55.600Z,11.50
2018-10-02T04:43:28.893Z,10.67
2018-10-02T04:47:02.145Z,10.50
2018-10-02T04:50:35.372Z,9.93
2018-10-02T04:54:08.619Z,10.30
2018-10-02T04:57:41.845Z,10.83
2018-10-02T05:01:15.074Z,9.50
2018-10-02T05:04:48.343Z,9.93
2018-10-02T05:08:21.701Z,10.73
2018-10-02T05:11:54.880Z,10.93
2018-10-02T05:15:28.132Z,10.40
2018-10-02T05:19:01.392Z,10.03
2018-10-02T05:22:34.644Z,9.07
2018-10-02T05:26:07.871Z,9.60
2018-10-02T05:29:41.199Z,9.30
2018-10-02T05:33:14.440Z,8.73
2018-10-02T05:36:47.713Z,10.13
2018-10-02T05:40:20.948Z,10.30
2018-10-02T05:43:54.180Z,10.17
2018-10-02T05:47:27.451Z,9.43
2018-10-02T05:51:00.676Z,9.00
2018-10-02T05:54:33.912Z,9.60
2018-10-02T05:58:07.140Z,8.20
2018-10-02T06:01:40.372Z,8.93
2018-10-02T06:05:13.621Z,7.67
2018-10-02T06:08:46.904Z,8.40
2018-10-02T06:12:20.160Z,8.60
2018-10-02T06:15:53.751Z,8.43
2018-10-02T06:19:26.993Z,8.50
2018-10-02T06:23:00.250Z,9.10
2018-10-02T06:26:33.514Z,8.03
2018-10-02T06:30:06.765Z,7.60
2018-10-02T06:33:39.992Z,8.53
2018-10-02T06:37:13.236Z,7.97
2018-10-02T06:40:46.493Z,6.47
2018-10-02T06:44:19.731Z,6.20
2018-10-02T06:47:52.977Z,5.87
2018-10-02T06:51:26.358Z,6.00
2018-10-02T06:54:59.448Z,5.90
2018-10-02T06:58:32.698Z,6.17
2018-10-02T07:02:05.913Z,5.73
2018-10-02T07:05:39.160Z,5.50
2018-10-02T07:09:12.423Z,6.40
2018-10-02T07:12:45.649Z,5.60
2018-10-02T07:16:18.916Z,6.40
2018-10-02T07:19:52.193Z,5.70
2018-10-02T07:23:25.416Z,5.93
2018-10-02T07:26:58.736Z,5.67
2018-10-02T07:30:31.956Z,5.23
2018-10-02T07:34:05.221Z,6.10
2018-10-02T07:37:38.457Z,5.83
2018-10-02T07:41:11.684Z,6.70
2018-10-02T07:44:44.920Z,6.57
2018-10-02T07:48:18.216Z,10.90
2018-10-02T07:51:51.424Z,6.10
2018-10-02T07:55:24.740Z,6.60
2018-10-02T07:58:57.907Z,6.20
2018-10-02T08:02:31.198Z,6.93
2018-10-02T08:06:04.445Z,6.13
2018-10-02T08:09:37.681Z,7.10
2018-10-02T08:13:11.948Z,5.60
2018-10-02T08:16:45.207Z,6.80
2018-10-02T08:20:18.462Z,5.50
2018-10-02T08:23:51.694Z,6.40
2018-10-02T08:27:25.005Z,5.87
2018-10-02T08:30:58.209Z,5.47
2018-10-02T08:34:31.497Z,5.87
2018-10-02T08:38:04.712Z,5.43
2018-10-02T08:41:38.287Z,5.47
2018-10-02T08:45:11.520Z,6.50
2018-10-02T08:48:44.773Z,6.20
2018-10-02T08:52:18.076Z,7.27
2018-10-02T08:55:51.261Z,7.23
2018-10-02T08:59:24.496Z,6.57
2018-10-02T09:02:57.845Z,5.83
2018-10-02T09:06:31.057Z,7.80
2018-10-02T09:10:04.319Z,6.00
2018-10-02T09:13:37.575Z,7.17
2018-10-02T09:17:10.825Z,7.20
2018-10-02T09:20:44.091Z,5.60
2018-10-02T09:24:17.329Z,6.50
2018-10-02T09:27:50.595Z,5.10
2018-10-02T09:31:29.202Z,5.57
2018-10-02T09:35:07.799Z,5.57
2018-10-02T09:39:48.998Z,4.93
2018-10-02T09:43:27.505Z,5.50
2018-10-02T09:47:00.743Z,6.20
2018-10-02T09:50:34.037Z,5.40
2018-10-02T09:54:07.239Z,5.67
2018-10-02T09:57:40.469Z,5.00
2018-10-02T10:01:19.216Z,5.00
2018-10-02T10:04:52.457Z,5.40
2018-10-02T10:08:25.712Z,4.50
2018-10-02T10:11:58.956Z,5.90
2018-10-02T10:15:32.204Z,5.00
2018-10-02T10:19:05.763Z,4.47
2018-10-02T10:22:39.096Z,4.70
2018-10-02T10:26:12.285Z,4.43
2018-10-02T10:29:45.513Z,4.87
2018-10-02T10:33:18.773Z,4.30
2018-10-02T10:36:52.213Z,4.77
2018-10-02T10:40:25.508Z,3.67
2018-10-02T10:43:58.704Z,3.20
2018-10-02T10:47:31.972Z,4.13
2018-10-02T10:51:05.216Z,2.90
2018-10-02T10:54:38.448Z,3.37
2018-10-02T10:58:11.714Z,3.30
2018-10-02T11:01:44.946Z,3.40
2018-10-02T11:05:18.264Z,3.93
2018-10-02T11:08:51.509Z,3.93
2018-10-02T11:12:24.752Z,3.60
2018-10-02T11:15:57.987Z,4.10
2018-10-02T11:19:31.445Z,3.07
2018-10-02T11:23:04.656Z,2.53
2018-10-02T11:26:37.889Z,4.07
2018-10-02T11:30:11.123Z,3.50
2018-10-02T11:33:44.356Z,3.03
2018-10-02T11:37:17.697Z,4.30
2018-10-02T11:40:50.894Z,3.87
2018-10-02T11:44:24.188Z,2.43
2018-10-02T11:47:57.380Z,2.80
2018-10-02T11:51:30.629Z,2.57
2018-10-02T11:55:03.894Z,3.00
2018-10-02T11:58:37.165Z,2.60
2018-10-02T12:02:10.700Z,2.70
2018-10-02T12:05:43.996Z,1.80
2018-10-02T12:09:17.272Z,2.80
2018-10-02T12:12:50.539Z,1.93
2018-10-02T12:16:23.790Z,1.97
2018-10-02T12:19:57.282Z,2.33
2018-10-02T12:23:30.340Z,2.30
2018-10-02T12:27:03.584Z,2.10
2018-10-02T12:30:36.819Z,2.10
2018-10-02T12:34:10.049Z,2.57
2018-10-02T12:37:43.285Z,2.17
2018-10-02T12:41:16.505Z,2.40
2018-10-02T12:44:49.821Z,1.70
2018-10-02T12:48:23.106Z,2.23
2018-10-02T12:51:56.321Z,1.70
2018-10-02T12:55:29.568Z,2.23
2018-10-02T12:59:02.812Z,1.60
2018-10-02T13:02:36.064Z,1.47
2018-10-02T13:06:09.356Z,1.40
2018-10-02T13:09:42.605Z,1.90
2018-10-02T13:13:15.956Z,2.00
2018-10-02T13:16:49.204Z,2.57
2018-10-02T13:20:22.437Z,1.70
2018-10-02T13:23:55.676Z,2.50
2018-10-02T13:27:28.918Z,2.13
2018-10-02T13:31:02.175Z,2.40
2018-10-02T13:34:35.700Z,2.10
2018-10-02T13:38:08.883Z,2.50
2018-10-02T13:41:42.122Z,2.10
2018-10-02T13:45:15.364Z,2.40
2018-10-02T13:48:48.627Z,2.77
2018-10-02T13:52:21.853Z,2.70
2018-10-02T13:55:55.123Z,3.83
2018-10-02T13:59:28.567Z,3.80
2018-10-02T14:03:02.859Z,3.10
2018-10-02T14:06:36.135Z,3.60
2018-10-02T14:10:09.389Z,3.00
2018-10-02T14:13:42.637Z,2.73
2018-10-02T14:17:15.908Z,2.90
2018-10-02T14:20:49.316Z,2.93
2018-10-02T14:24:22.587Z,3.50
2018-10-02T14:27:55.909Z,3.00
2018-10-02T14:31:29.260Z,3.20
2018-10-02T14:35:02.508Z,2.97
2018-10-02T14:38:35.804Z,2.50
2018-10-02T14:42:09.051Z,3.63
2018-10-02T14:45:42.672Z,3.30
2018-10-02T14:49:16.157Z,4.00
2018-10-02T14:52:50.098Z,4.23
2018-10-02T14:56:23.325Z,3.50
2018-10-02T14:59:56.992Z,4.27
2018-10-02T15:03:30.638Z,3.83
2018-10-02T15:07:03.977Z,3.27
2018-10-02T15:10:37.247Z,4.10
2018-10-02T15:14:10.504Z,2.53
2018-10-02T15:17:43.769Z,2.40
2018-10-02T15:21:17.048Z,2.63
2018-10-02T15:24:50.316Z,3.27
2018-10-02T15:28:23.820Z,2.73
2018-10-02T15:31:57.103Z,3.07
2018-10-02T15:35:30.371Z,3.13
2018-10-02T15:39:04.251Z,2.47
2018-10-02T15:42:37.581Z,2.57
2018-10-02T15:46:10.885Z,2.30
2018-10-02T15:49:44.150Z,2.40
2018-10-02T15:53:17.429Z,2.67
2018-10-02T15:56:51.485Z,2.77
2018-10-02T16:00:24.731Z,2.50
2018-10-02T16:03:57.980Z,3.73
2018-10-02T16:07:31.223Z,2.33
2018-10-02T16:11:04.516Z,2.90
2018-10-02T16:14:37.737Z,2.60
2018-10-02T16:18:11.071Z,2.13
2018-10-02T16:21:44.378Z,2.17
2018-10-02T16:25:17.620Z,1.90
2018-10-02T16:28:50.860Z,3.00
2018-10-02T16:32:24.787Z,2.40
2018-10-02T16:35:58.053Z,2.20
2018-10-02T16:39:31.304Z,1.93
2018-10-02T16:43:04.558Z,2.30
2018-10-02T16:46:37.840Z,2.37
2018-10-02T16:50:11.084Z,2.03
2018-10-02T16:53:44.331Z,2.50
2018-10-02T16:57:17.603Z,1.80
2018-10-02T17:00:51.149Z,2.37
2018-10-02T17:04:24.382Z,1.60
2018-10-02T17:07:57.642Z,2.83
2018-10-02T17:11:30.892Z,2.93
2018-10-02T17:15:04.148Z,3.10
2018-10-02T17:18:37.393Z,2.50
2018-10-02T17:22:10.729Z,2.37
2018-10-02T17:25:44.013Z,2.83
2018-10-02T17:29:17.243Z,2.40
2018-10-02T17:32:50.492Z,2.30
2018-10-02T17:36:23.734Z,2.50
2018-10-02T17:39:57.005Z,4.10
2018-10-02T17:43:30.268Z,3.00
2018-10-02T17:47:03.562Z,3.50
2018-10-02T17:50:36.796Z,3.80
2018-10-02T17:54:10.040Z,3.10
2018-10-02T17:57:43.304Z,3.43
2018-10-02T18:01:16.546Z,3.37
2018-10-02T18:04:49.784Z,2.77
2018-10-02T18:08:23.029Z,2.63
2018-10-02T18:11:56.269Z,2.90
2018-10-02T18:15:29.590Z,3.23
2018-10-02T18:19:02.780Z,3.00
2018-10-02T18:22:36.028Z,3.10
2018-10-02T18:26:09.280Z,2.70
2018-10-02T18:29:42.533Z,2.30
2018-10-02T18:33:15.764Z,2.50
2018-10-02T18:36:49.018Z,2.73
2018-10-02T18:40:22.270Z,3.33
2018-10-02T18:43:55.523Z,3.00
2018-10-02T18:47:28.764Z,3.10
2018-10-02T18:51:01.997Z,3.00
2018-10-02T18:54:35.263Z,3.43
2018-10-02T18:58:08.573Z,3.30
2018-10-02T19:01:41.826Z,3.83
2018-10-02T19:05:15.065Z,3.10
2018-10-02T19:08:53.913Z,4.20
2018-10-02T19:12:27.139Z,3.20
2018-10-02T19:16:05.737Z,3.63
2018-10-02T19:19:44.467Z,3.03
2018-10-02T19:23:17.823Z,3.10
2018-10-02T19:26:51.071Z,3.43
2018-10-02T19:30:29.776Z,3.43
2018-10-02T19:34:03.040Z,3.60
2018-10-02T19:37:41.736Z,3.67
2018-10-02T19:41:15.388Z,3.33
2018-10-02T19:44:48.663Z,3.47
2018-10-02T19:48:21.910Z,3.40
2018-10-02T19:52:30.869Z,3.70
2018-10-02T19:56:04.452Z,3.13
2018-10-02T19:59:37.777Z,3.20
2018-10-02T20:03:11.046Z,3.37
2018-10-02T20:06:44.375Z,4.03
2018-10-02T20:10:19.186Z,4.53
2018-10-02T20:13:52.603Z,4.00
2018-10-02T20:17:26.017Z,4.17
2018-10-02T20:20:59.448Z,3.80
2018-10-02T20:24:33.876Z,4.00
2018-10-02T20:28:07.188Z,4.03
2018-10-02T20:31:45.081Z,3.90
2018-10-02T20:35:18.439Z,4.90
2018-10-02T20:38:52.573Z,4.27
2018-10-02T20:42:25.990Z,3.73
2018-10-02T20:45:59.220Z,3.93
2018-10-02T20:49:33.216Z,3.80
2018-10-02T20:53:06.826Z,3.70
2018-10-02T20:56:40.208Z,3.70
2018-10-02T21:00:14.268Z,4.40
2018-10-02T21:03:47.732Z,4.67
2018-10-02T21:07:21.070Z,4.17
2018-10-02T21:10:54.452Z,3.90
2018-10-02T21:14:27.800Z,4.40
2018-10-02T21:18:00.938Z,4.07
2018-10-02T21:21:34.249Z,4.43
2018-10-02T21:25:07.538Z,4.47
2018-10-02T21:28:40.757Z,4.80
2018-10-02T21:32:14.198Z,4.17
2018-10-02T21:35:48.588Z,4.53
2018-10-02T21:39:22.009Z,5.30
2018-10-02T21:42:55.502Z,5.03
2018-10-02T21:46:28.903Z,7.07
2018-10-02T21:50:02.273Z,5.13
2018-10-02T21:53:35.600Z,5.13
2018-10-02T21:57:08.943Z,4.87
2018-10-02T22:00:42.492Z,5.50
2018-10-02T22:04:15.942Z,4.90
2018-10-02T22:07:49.245Z,4.57
2018-10-02T22:11:22.649Z,5.47
2018-10-02T22:14:55.946Z,5.37
2018-10-02T22:18:29.178Z,5.43
2018-10-02T22:22:02.533Z,6.23
2018-10-02T22:25:36.101Z,6.07
2018-10-02T22:29:09.364Z,4.70
2018-10-02T22:32:43.195Z,5.40
2018-10-02T22:36:16.429Z,6.00
2018-10-02T22:39:49.670Z,5.50
2018-10-02T22:43:22.957Z,5.73
2018-10-02T22:46:56.204Z,5.80
2018-10-02T22:50:30.248Z,5.40
2018-10-02T22:54:03.491Z,5.90
2018-10-02T22:57:36.725Z,6.43
2018-10-02T23:01:09.975Z,6.60
2018-10-02T23:04:43.309Z,5.60
2018-10-02T23:08:16.616Z,6.30
2018-10-02T23:11:49.864Z,6.00
2018-10-02T23:15:23.121Z,6.50
2018-10-02T23:18:56.421Z,7.23
2018-10-02T23:22:29.657Z,5.87
2018-10-02T23:26:03.110Z,5.90
2018-10-02T23:29:36.333Z,7.07
2018-10-02T23:33:09.617Z,6.33
2018-10-02T23:36:42.928Z,7.33
2018-10-02T23:40:16.181Z,6.10
2018-10-02T23:43:49.432Z,7.20
2018-10-02T23:47:22.659Z,6.83
2018-10-02T23:50:55.897Z,6.07
2018-10-02T23:54:29.145Z,6.40
2018-10-02T23:58:02.365Z,6.17
